createdAt,value
2023-07-03T00:00:37.354Z,45.76
2023-07-03T00:01:37.989Z,45.70
2023-07-03T00:02:38.466Z,45.72
2023-07-03T00:03:38.500Z,45.72
2023-07-03T00:04:38.650Z,45.70
2023-07-03T00:05:38.609Z,45.74
2023-07-03T00:06:38.672Z,45.74
2023-07-03T00:07:38.701Z,45.76
2023-07-03T00:08:37.788Z,45.76
2023-07-03T00:09:37.801Z,45.74
2023-07-03T00:10:38.867Z,45.75
2023-07-03T00:11:38.922Z,45.74
2023-07-03T00:12:38.970Z,45.72
2023-07-03T00:13:39.029Z,45.78
2023-07-03T00:14:39.070Z,45.77
2023-07-03T00:15:38.148Z,45.78
2023-07-03T00:16:39.166Z,45.72
2023-07-03T00:17:39.279Z,45.75
2023-07-03T00:18:38.283Z,45.77
2023-07-03T00:19:38.346Z,45.76
2023-07-03T00:20:39.406Z,45.74
2023-07-03T00:21:39.429Z,45.73
2023-07-03T00:22:38.475Z,45.77
2023-07-03T00:23:39.533Z,45.75
2023-07-03T00:24:39.568Z,45.73
2023-07-03T00:25:40.450Z,45.78
2023-07-03T00:26:39.683Z,45.79
2023-07-03T00:27:38.724Z,45.73
2023-07-03T00:28:39.781Z,45.74
2023-07-03T00:29:38.851Z,45.78
2023-07-03T00:30:39.882Z,45.72
2023-07-03T00:31:39.965Z,45.74
2023-07-03T00:32:39.033Z,45.77
2023-07-03T00:33:40.041Z,45.77
2023-07-03T00:34:39.115Z,45.77
2023-07-03T00:35:40.213Z,45.74
2023-07-03T00:36:40.237Z,45.75
2023-07-03T00:37:40.256Z,45.77
2023-07-03T00:38:40.315Z,45.73
2023-07-03T00:39:40.361Z,45.72
2023-07-03T00:40:40.408Z,45.78
2023-07-03T00:41:39.453Z,45.74
2023-07-03T00:42:40.515Z,45.80
2023-07-03T00:43:39.661Z,45.74
2023-07-03T00:44:39.653Z,45.75
2023-07-03T00:45:40.684Z,45.78
2023-07-03T00:46:40.870Z,45.77
2023-07-03T00:47:40.812Z,45.74
2023-07-03T00:48:39.836Z,45.77
2023-07-03T00:49:39.905Z,45.75
2023-07-03T00:50:39.957Z,45.75
2023-07-03T00:51:41.019Z,45.77
2023-07-03T00:52:41.082Z,45.79
2023-07-03T00:53:40.125Z,45.74
2023-07-03T00:54:40.192Z,45.76
2023-07-03T00:55:40.237Z,45.76
2023-07-03T00:56:41.297Z,45.79
2023-07-03T00:57:41.383Z,45.77
2023-07-03T00:58:40.421Z,45.73
2023-07-03T00:59:40.468Z,45.77
2023-07-03T01:00:40.557Z,45.75
2023-07-03T01:01:41.709Z,45.76
2023-07-03T01:02:41.743Z,45.70
2023-07-03T01:03:40.703Z,45.74
2023-07-03T01:04:41.882Z,45.83
2023-07-03T01:05:41.841Z,45.77
2023-07-03T01:06:41.868Z,45.74
2023-07-03T01:07:41.949Z,45.77
2023-07-03T01:08:42.021Z,45.78
2023-07-03T01:09:41.067Z,45.75
2023-07-03T01:10:42.090Z,45.76
2023-07-03T01:11:42.156Z,45.76
2023-07-03T01:12:41.221Z,45.79
2023-07-03T01:13:42.276Z,45.76
2023-07-03T01:14:42.316Z,45.75
2023-07-03T01:15:42.382Z,45.77
2023-07-03T01:16:42.518Z,45.73
2023-07-03T01:17:42.507Z,45.75
2023-07-03T01:18:41.549Z,45.80
2023-07-03T01:19:42.606Z,45.74
2023-07-03T01:20:42.668Z,45.75
2023-07-03T01:21:43.890Z,45.76
2023-07-03T01:22:42.778Z,45.79
2023-07-03T01:23:42.824Z,45.75
2023-07-03T01:24:42.937Z,45.77
2023-07-03T01:25:42.929Z,45.73
2023-07-03T01:26:43.010Z,45.74
2023-07-03T01:27:43.054Z,45.79
2023-07-03T01:28:43.134Z,45.78
2023-07-03T01:29:43.164Z,45.76
2023-07-03T01:30:42.225Z,45.84
2023-07-03T01:31:42.300Z,45.78
2023-07-03T01:32:42.367Z,45.77
2023-07-03T01:33:43.384Z,45.75
2023-07-03T01:34:42.449Z,45.73
2023-07-03T01:35:43.493Z,45.83
2023-07-03T01:36:43.596Z,45.77
2023-07-03T01:37:43.618Z,45.76
2023-07-03T01:38:43.695Z,45.78
2023-07-03T01:39:42.723Z,45.78
2023-07-03T01:40:43.801Z,45.80
2023-07-03T01:41:43.841Z,45.80
2023-07-03T01:42:43.896Z,45.76
2023-07-03T01:43:43.948Z,45.74
2023-07-03T01:44:43.999Z,45.77
2023-07-03T01:45:44.100Z,45.77
2023-07-03T01:46:43.100Z,45.80
2023-07-03T01:47:44.192Z,45.82
2023-07-03T01:48:43.222Z,45.79
2023-07-03T01:49:44.290Z,45.79
2023-07-03T01:50:43.334Z,45.76
2023-07-03T01:51:44.365Z,45.75
2023-07-03T01:52:44.428Z,45.70
2023-07-03T01:53:43.500Z,45.81
2023-07-03T01:54:44.527Z,45.83
2023-07-03T01:55:44.577Z,45.78
2023-07-03T01:56:43.666Z,45.82
2023-07-03T01:57:43.733Z,45.77
2023-07-03T01:58:43.751Z,45.81
2023-07-03T01:59:44.795Z,45.85
2023-07-03T02:00:44.867Z,45.80
2023-07-03T02:01:44.965Z,45.80
2023-07-03T02:02:44.052Z,45.81
2023-07-03T02:03:44.054Z,45.82
2023-07-03T02:04:45.112Z,45.82
2023-07-03T02:05:44.119Z,45.82
2023-07-03T02:06:44.180Z,45.81
2023-07-03T02:07:45.233Z,45.84
2023-07-03T02:08:44.297Z,45.81
2023-07-03T02:09:45.352Z,45.81
2023-07-03T02:10:45.410Z,45.81
2023-07-03T02:11:44.444Z,45.78
2023-07-03T02:12:44.529Z,45.77
2023-07-03T02:13:45.571Z,45.79
2023-07-03T02:14:45.630Z,45.77
2023-07-03T02:15:45.694Z,45.79
2023-07-03T02:16:44.823Z,45.82
2023-07-03T02:17:45.845Z,45.81
2023-07-03T02:18:45.838Z,45.82
2023-07-03T02:19:44.900Z,45.82
2023-07-03T02:20:44.959Z,45.83
2023-07-03T02:21:46.020Z,45.84
2023-07-03T02:22:46.070Z,45.82
2023-07-03T02:23:45.142Z,45.85
2023-07-03T02:24:45.176Z,45.83
2023-07-03T02:25:46.235Z,45.78
2023-07-03T02:26:45.280Z,45.79
2023-07-03T02:27:46.433Z,45.78
2023-07-03T02:28:45.404Z,45.80
2023-07-03T02:29:45.472Z,45.80
2023-07-03T02:30:45.548Z,45.83
2023-07-03T02:31:46.578Z,45.83
2023-07-03T02:32:46.709Z,45.78
2023-07-03T02:33:46.741Z,45.81
2023-07-03T02:34:46.761Z,45.81
2023-07-03T02:35:46.853Z,45.78
2023-07-03T02:36:45.891Z,45.84
2023-07-03T02:37:46.953Z,45.85
2023-07-03T02:38:47.004Z,45.84
2023-07-03T02:39:46.103Z,45.83
2023-07-03T02:40:47.122Z,45.82
2023-07-03T02:41:46.178Z,45.84
2023-07-03T02:42:46.249Z,45.85
2023-07-03T02:43:46.332Z,45.77
2023-07-03T02:44:47.395Z,45.90
2023-07-03T02:45:47.543Z,45.81
2023-07-03T02:46:46.542Z,45.79
2023-07-03T02:47:46.581Z,45.81
2023-07-03T02:48:46.614Z,45.81
2023-07-03T02:49:47.755Z,45.81
2023-07-03T02:50:47.755Z,45.79
2023-07-03T02:51:47.793Z,45.81
2023-07-03T02:52:46.864Z,45.84
2023-07-03T02:53:47.911Z,45.81
2023-07-03T02:54:47.963Z,45.81
2023-07-03T02:55:48.210Z,45.85
2023-07-03T02:56:47.176Z,45.81
2023-07-03T02:57:47.155Z,45.83
2023-07-03T02:58:47.217Z,45.83
2023-07-03T02:59:48.300Z,45.88
2023-07-03T03:00:48.414Z,45.85
2023-07-03T03:01:47.426Z,45.83
2023-07-03T03:02:47.543Z,45.85
2023-07-03T03:03:47.584Z,45.81
2023-07-03T03:04:48.627Z,45.81
2023-07-03T03:05:47.737Z,45.81
2023-07-03T03:06:48.708Z,45.77
2023-07-03T03:07:48.803Z,45.84
2023-07-03T03:08:48.844Z,45.84
2023-07-03T03:09:48.943Z,45.81
2023-07-03T03:10:48.981Z,45.88
2023-07-03T03:11:49.028Z,45.83
2023-07-03T03:12:48.112Z,45.84
2023-07-03T03:13:48.155Z,45.83
2023-07-03T03:14:49.239Z,45.87
2023-07-03T03:15:49.618Z,45.87
2023-07-03T03:16:49.497Z,45.88
2023-07-03T03:17:48.400Z,45.89
2023-07-03T03:18:48.574Z,45.84
2023-07-03T03:19:49.514Z,45.82
2023-07-03T03:20:48.634Z,45.85
2023-07-03T03:21:48.618Z,45.83
2023-07-03T03:22:49.686Z,45.85
2023-07-03T03:23:48.734Z,45.80
2023-07-03T03:24:49.814Z,45.79
2023-07-03T03:25:50.212Z,45.81
2023-07-03T03:26:48.941Z,45.85
2023-07-03T03:27:48.984Z,45.79
2023-07-03T03:28:50.078Z,45.85
2023-07-03T03:29:50.115Z,45.85
2023-07-03T03:30:49.200Z,45.83
2023-07-03T03:31:50.241Z,45.87
2023-07-03T03:32:50.308Z,45.85
2023-07-03T03:33:50.343Z,45.84
2023-07-03T03:34:49.413Z,45.81
2023-07-03T03:35:49.730Z,45.81
2023-07-03T03:36:49.523Z,45.83
2023-07-03T03:37:50.578Z,45.91
2023-07-03T03:38:49.664Z,45.83
2023-07-03T03:39:50.720Z,45.88
2023-07-03T03:40:49.788Z,45.85
2023-07-03T03:41:49.853Z,45.85
2023-07-03T03:42:49.903Z,45.85
2023-07-03T03:43:50.968Z,45.83
2023-07-03T03:44:50.021Z,45.83
2023-07-03T03:45:50.367Z,45.86
2023-07-03T03:46:51.155Z,45.86
2023-07-03T03:47:51.318Z,45.83
2023-07-03T03:48:51.390Z,45.81
2023-07-03T03:49:50.343Z,45.86
2023-07-03T03:50:51.665Z,45.87
2023-07-03T03:51:50.472Z,45.86
2023-07-03T03:52:51.527Z,45.82
2023-07-03T03:53:51.599Z,45.83
2023-07-03T03:54:51.651Z,45.88
2023-07-03T03:55:51.141Z,45.87
2023-07-03T03:56:51.771Z,45.83
2023-07-03T03:57:51.823Z,45.86
2023-07-03T03:58:51.910Z,45.83
2023-07-03T03:59:52.132Z,45.83
2023-07-03T04:00:51.024Z,45.85
2023-07-03T04:01:51.157Z,45.87
2023-07-03T04:02:52.214Z,45.84
2023-07-03T04:03:52.342Z,45.88
2023-07-03T04:04:52.319Z,45.84
2023-07-03T04:05:52.636Z,45.89
2023-07-03T04:06:51.376Z,45.86
2023-07-03T04:07:52.443Z,45.92
2023-07-03T04:08:51.494Z,45.86
2023-07-03T04:09:52.557Z,45.86
2023-07-03T04:10:51.621Z,45.88
2023-07-03T04:11:51.688Z,45.84
2023-07-03T04:12:52.746Z,45.88
2023-07-03T04:13:52.906Z,45.88
2023-07-03T04:14:52.899Z,45.87
2023-07-03T04:15:52.604Z,45.88
2023-07-03T04:16:53.182Z,45.87
2023-07-03T04:17:52.104Z,45.84
2023-07-03T04:18:52.114Z,45.84
2023-07-03T04:19:52.199Z,45.84
2023-07-03T04:20:53.225Z,45.86
2023-07-03T04:21:53.304Z,45.84
2023-07-03T04:22:53.335Z,45.86
2023-07-03T04:23:52.412Z,45.84
2023-07-03T04:24:52.461Z,45.83
2023-07-03T04:25:52.797Z,45.88
2023-07-03T04:26:53.597Z,45.86
2023-07-03T04:27:52.631Z,45.87
2023-07-03T04:28:53.674Z,45.86
2023-07-03T04:29:53.740Z,45.82
2023-07-03T04:30:53.785Z,45.84
2023-07-03T04:31:52.914Z,45.89
2023-07-03T04:32:53.931Z,45.89
2023-07-03T04:33:52.954Z,45.86
2023-07-03T04:34:54.034Z,45.90
2023-07-03T04:35:53.319Z,45.90
2023-07-03T04:36:53.123Z,45.84
2023-07-03T04:37:53.177Z,45.88
2023-07-03T04:38:53.251Z,45.90
2023-07-03T04:39:53.313Z,45.88
2023-07-03T04:40:53.357Z,45.89
2023-07-03T04:41:54.411Z,45.84
2023-07-03T04:42:54.505Z,45.92
2023-07-03T04:43:54.535Z,45.87
2023-07-03T04:44:54.599Z,45.86
2023-07-03T04:45:54.060Z,45.88
2023-07-03T04:46:54.698Z,45.90
2023-07-03T04:47:54.908Z,45.88
2023-07-03T04:48:54.812Z,45.92
2023-07-03T04:49:53.892Z,45.87
2023-07-03T04:50:53.947Z,45.89
2023-07-03T04:51:53.972Z,45.88
2023-07-03T04:52:57.401Z,45.88
2023-07-03T04:53:55.015Z,45.88
2023-07-03T04:54:54.029Z,45.88
2023-07-03T04:55:54.559Z,45.88
2023-07-03T04:56:55.013Z,45.83
2023-07-03T04:57:54.984Z,45.86
2023-07-03T04:58:54.982Z,45.92
2023-07-03T04:59:54.978Z,45.87
2023-07-03T05:00:54.982Z,45.86
2023-07-03T05:01:55.042Z,45.84
2023-07-03T05:02:54.063Z,45.83
2023-07-03T05:03:54.136Z,45.86
2023-07-03T05:04:55.205Z,45.88
2023-07-03T05:05:55.177Z,45.87
2023-07-03T05:06:55.272Z,45.86
2023-07-03T05:07:57.874Z,45.84
2023-07-03T05:08:55.264Z,45.85
2023-07-03T05:09:54.257Z,45.80
2023-07-03T05:10:54.242Z,45.86
2023-07-03T05:11:54.257Z,45.89
2023-07-03T05:12:55.246Z,45.89
2023-07-03T05:13:55.251Z,45.84
2023-07-03T05:14:54.230Z,45.87
2023-07-03T05:15:54.454Z,45.82
2023-07-03T05:16:54.204Z,45.82
2023-07-03T05:17:55.234Z,45.84
2023-07-03T05:18:54.203Z,45.87
2023-07-03T05:19:55.170Z,45.81
2023-07-03T05:20:55.169Z,45.80
2023-07-03T05:21:55.166Z,45.88
2023-07-03T05:22:54.173Z,45.84
2023-07-03T05:23:54.245Z,45.87
2023-07-03T05:24:54.285Z,45.84
2023-07-03T05:25:54.523Z,45.86
2023-07-03T05:26:55.418Z,45.84
2023-07-03T05:27:55.470Z,45.84
2023-07-03T05:28:55.521Z,45.79
2023-07-03T05:29:54.591Z,45.82
2023-07-03T05:30:55.690Z,45.98
2023-07-03T05:31:54.731Z,46.13
2023-07-03T05:32:55.775Z,46.69
2023-07-03T05:33:54.803Z,46.64
2023-07-03T05:34:55.834Z,46.86
2023-07-03T05:35:55.987Z,46.89
2023-07-03T05:36:55.881Z,46.89
2023-07-03T05:37:55.942Z,46.78
2023-07-03T05:38:56.011Z,46.74
2023-07-03T05:39:56.037Z,46.62
2023-07-03T05:40:56.076Z,46.54
2023-07-03T05:41:55.134Z,46.41
2023-07-03T05:42:55.187Z,46.40
2023-07-03T05:43:56.242Z,46.38
2023-07-03T05:44:56.337Z,46.35
2023-07-03T05:45:56.389Z,46.45
2023-07-03T05:46:55.473Z,46.37
2023-07-03T05:47:56.489Z,46.76
2023-07-03T05:48:56.511Z,46.56
2023-07-03T05:49:56.558Z,46.71
2023-07-03T05:50:56.633Z,46.56
2023-07-03T05:51:56.668Z,46.47
2023-07-03T05:52:56.740Z,46.55
2023-07-03T05:53:55.808Z,46.80
2023-07-03T05:54:56.922Z,46.73
2023-07-03T05:55:56.942Z,46.72
2023-07-03T05:56:56.982Z,46.74
2023-07-03T05:57:56.034Z,46.67
2023-07-03T05:58:57.080Z,46.75
2023-07-03T05:59:57.150Z,46.56
2023-07-03T06:00:57.178Z,46.83
2023-07-03T06:01:57.209Z,46.77
2023-07-03T06:02:56.293Z,46.75
2023-07-03T06:03:57.292Z,46.80
2023-07-03T06:04:57.429Z,46.54
2023-07-03T06:05:57.307Z,46.39
2023-07-03T06:06:56.350Z,46.86
2023-07-03T06:07:57.401Z,46.82
2023-07-03T06:08:57.383Z,47.02
2023-07-03T06:09:57.404Z,47.06
2023-07-03T06:10:56.439Z,47.24
2023-07-03T06:11:57.424Z,47.34
2023-07-03T06:12:56.450Z,47.36
2023-07-03T06:13:56.441Z,47.38
2023-07-03T06:14:56.480Z,47.39
2023-07-03T06:15:57.456Z,47.62
2023-07-03T06:16:56.526Z,47.80
2023-07-03T06:17:57.479Z,47.56
2023-07-03T06:18:56.465Z,47.76
2023-07-03T06:19:56.458Z,47.97
2023-07-03T06:20:56.443Z,48.00
2023-07-03T06:21:57.494Z,48.01
2023-07-03T06:22:57.449Z,48.57
2023-07-03T06:23:57.452Z,48.32
2023-07-03T06:24:57.480Z,48.33
2023-07-03T06:25:57.441Z,48.45
2023-07-03T06:26:57.456Z,48.36
2023-07-03T06:27:57.420Z,48.92
2023-07-03T06:28:57.419Z,49.04
2023-07-03T06:29:56.416Z,49.08
2023-07-03T06:30:57.456Z,48.99
2023-07-03T06:31:56.425Z,48.81
2023-07-03T06:32:57.476Z,48.83
2023-07-03T06:33:56.403Z,48.56
2023-07-03T06:34:56.493Z,48.27
2023-07-03T06:35:57.411Z,49.16
2023-07-03T06:36:56.411Z,48.70
2023-07-03T06:37:56.398Z,48.29
2023-07-03T06:38:57.397Z,49.02
2023-07-03T06:39:57.412Z,49.03
2023-07-03T06:40:57.394Z,48.90
2023-07-03T06:41:57.400Z,49.14
2023-07-03T06:42:56.508Z,49.30
2023-07-03T06:43:57.376Z,49.64
2023-07-03T06:44:57.402Z,49.54
2023-07-03T06:45:58.333Z,49.60
2023-07-03T06:46:57.412Z,49.00
2023-07-03T06:47:57.453Z,49.46
2023-07-03T06:48:57.402Z,49.70
2023-07-03T06:49:56.411Z,49.76
2023-07-03T06:50:57.396Z,49.48
2023-07-03T06:51:57.398Z,49.52
2023-07-03T06:52:57.398Z,49.76
2023-07-03T06:53:57.400Z,49.78
2023-07-03T06:54:56.385Z,49.66
2023-07-03T06:55:59.116Z,49.56
2023-07-03T06:56:57.386Z,50.05
2023-07-03T06:57:57.363Z,50.07
2023-07-03T06:58:57.525Z,50.08
2023-07-03T06:59:57.377Z,50.09
2023-07-03T07:00:56.348Z,50.21
2023-07-03T07:01:56.399Z,50.31
2023-07-03T07:02:57.501Z,50.33
2023-07-03T07:03:56.389Z,50.30
2023-07-03T07:04:58.801Z,50.29
2023-07-03T07:05:58.983Z,50.16
2023-07-03T07:06:56.321Z,50.13
2023-07-03T07:07:56.334Z,50.04
2023-07-03T07:08:57.300Z,50.21
2023-07-03T07:09:57.311Z,50.08
2023-07-03T07:10:57.294Z,49.76
2023-07-03T07:11:56.452Z,50.32
2023-07-03T07:12:57.282Z,50.26
2023-07-03T07:13:57.282Z,50.29
2023-07-03T07:14:57.287Z,50.26
2023-07-03T07:15:56.243Z,50.11
2023-07-03T07:16:57.283Z,50.22
2023-07-03T07:17:56.269Z,50.14
2023-07-03T07:18:57.321Z,50.11
2023-07-03T07:19:59.082Z,50.17
2023-07-03T07:20:57.230Z,50.43
2023-07-03T07:21:57.199Z,50.25
2023-07-03T07:22:57.195Z,50.36
2023-07-03T07:23:57.229Z,50.26
2023-07-03T07:24:57.207Z,50.51
2023-07-03T07:25:58.389Z,50.66
2023-07-03T07:26:57.281Z,50.90
2023-07-03T07:27:56.345Z,50.71
2023-07-03T07:28:57.391Z,50.73
2023-07-03T07:29:57.456Z,50.75
2023-07-03T07:30:56.669Z,51.01
2023-07-03T07:31:57.581Z,50.94
2023-07-03T07:32:57.694Z,51.10
2023-07-03T07:33:56.739Z,51.23
2023-07-03T07:34:57.753Z,50.90
2023-07-03T07:35:57.802Z,51.16
2023-07-03T07:36:56.862Z,51.35
2023-07-03T07:37:56.903Z,51.06
2023-07-03T07:38:57.246Z,51.11
2023-07-03T07:39:57.005Z,51.11
2023-07-03T07:40:57.050Z,51.29
2023-07-03T07:41:57.142Z,51.20
2023-07-03T07:42:58.140Z,51.16
2023-07-03T07:43:57.196Z,51.06
2023-07-03T07:44:58.248Z,51.22
2023-07-03T07:45:58.329Z,51.16
2023-07-03T07:46:58.503Z,51.34
2023-07-03T07:47:57.431Z,51.13
2023-07-03T07:48:57.449Z,51.25
2023-07-03T07:49:57.474Z,51.33
2023-07-03T07:50:58.502Z,51.15
2023-07-03T07:51:58.550Z,50.76
2023-07-03T07:52:57.579Z,50.66
2023-07-03T07:53:58.621Z,51.18
2023-07-03T07:54:58.659Z,50.87
2023-07-03T07:55:58.660Z,51.09
2023-07-03T07:56:57.685Z,51.16
2023-07-03T07:57:58.728Z,51.07
2023-07-03T07:58:58.734Z,50.73
2023-07-03T07:59:57.778Z,50.93
2023-07-03T08:00:59.115Z,50.80
2023-07-03T08:01:58.833Z,50.82
2023-07-03T08:02:58.017Z,50.76
2023-07-03T08:03:58.905Z,50.36
2023-07-03T08:04:59.039Z,50.53
2023-07-03T08:05:58.931Z,50.61
2023-07-03T08:06:58.960Z,50.46
2023-07-03T08:07:58.007Z,50.50
2023-07-03T08:08:58.020Z,50.77
2023-07-03T08:09:59.040Z,50.59
2023-07-03T08:10:59.045Z,50.45
2023-07-03T08:11:58.056Z,50.54
2023-07-03T08:12:59.068Z,50.59
2023-07-03T08:13:59.081Z,50.48
2023-07-03T08:14:59.105Z,50.58
2023-07-03T08:15:59.137Z,50.55
2023-07-03T08:16:58.172Z,50.35
2023-07-03T08:17:58.126Z,50.18
2023-07-03T08:18:58.168Z,50.51
2023-07-03T08:19:58.184Z,50.34
2023-07-03T08:20:58.192Z,50.18
2023-07-03T08:21:58.217Z,49.97
2023-07-03T08:22:58.238Z,49.93
2023-07-03T08:23:59.242Z,50.04
2023-07-03T08:24:59.271Z,49.90
2023-07-03T08:25:59.264Z,49.87
2023-07-03T08:26:58.280Z,49.83
2023-07-03T08:27:58.275Z,50.29
2023-07-03T08:28:59.272Z,50.20
2023-07-03T08:29:58.282Z,49.87
2023-07-03T08:30:58.316Z,49.93
2023-07-03T08:31:59.355Z,50.06
2023-07-03T08:32:59.409Z,49.84
2023-07-03T08:33:58.468Z,49.91
2023-07-03T08:37:58.325Z,50.15
2023-07-03T08:38:59.326Z,49.76
2023-07-03T08:39:59.342Z,49.63
2023-07-03T08:40:59.314Z,50.05
2023-07-03T08:41:58.298Z,49.65
2023-07-03T08:42:59.314Z,49.74
2023-07-03T08:43:59.283Z,49.52
2023-07-03T08:44:59.285Z,49.34
2023-07-03T08:45:58.311Z,49.76
2023-07-03T08:47:10.770Z,49.56
2023-07-03T08:47:59.267Z,49.91
2023-07-03T08:48:58.278Z,49.59
2023-07-03T08:49:58.241Z,49.28
2023-07-03T08:50:59.386Z,49.54
2023-07-03T08:51:58.216Z,49.67
2023-07-03T08:52:59.231Z,49.53
2023-07-03T08:53:58.215Z,49.53
2023-07-03T08:54:59.200Z,49.55
2023-07-03T08:55:59.221Z,49.41
2023-07-03T08:56:59.191Z,49.51
2023-07-03T08:58:00.170Z,49.52
2023-07-03T08:58:59.178Z,49.46
2023-07-03T08:59:59.213Z,49.64
2023-07-03T09:00:59.308Z,49.35
2023-07-03T09:01:59.311Z,49.45
2023-07-03T09:02:58.434Z,49.38
2023-07-03T09:03:58.510Z,49.55
2023-07-03T09:04:59.496Z,49.58
2023-07-03T09:05:59.514Z,49.55
2023-07-03T09:06:59.667Z,49.31
2023-07-03T09:07:58.617Z,49.44
2023-07-03T09:08:58.671Z,49.27
2023-07-03T09:09:58.730Z,49.10
2023-07-03T09:10:58.824Z,49.42
2023-07-03T09:11:58.875Z,49.40
2023-07-03T09:12:59.936Z,49.36
2023-07-03T09:14:00.010Z,49.33
2023-07-03T09:14:59.052Z,49.30
2023-07-03T09:16:00.399Z,49.21
2023-07-03T09:17:00.424Z,49.32
2023-07-03T09:18:00.312Z,49.15
2023-07-03T09:18:59.339Z,49.21
2023-07-03T09:20:00.401Z,49.23
2023-07-03T09:20:59.456Z,49.12
2023-07-03T09:22:00.536Z,49.12
2023-07-03T09:23:00.676Z,49.05
2023-07-03T09:24:00.649Z,49.00
2023-07-03T09:25:00.701Z,48.98
2023-07-03T09:26:04.588Z,49.01
2023-07-03T09:27:01.318Z,49.07
2023-07-03T09:28:00.967Z,49.04
2023-07-03T09:28:59.994Z,48.91
2023-07-03T09:30:00.080Z,48.94
2023-07-03T09:31:01.841Z,49.04
2023-07-03T09:32:00.366Z,48.98
2023-07-03T09:33:00.448Z,48.89
2023-07-03T09:34:00.436Z,48.79
2023-07-03T09:35:01.470Z,48.80
2023-07-03T09:36:02.460Z,48.85
2023-07-03T09:37:01.588Z,48.88
2023-07-03T09:38:00.674Z,48.80
2023-07-03T09:39:01.871Z,48.82
2023-07-03T09:40:01.868Z,48.79
2023-07-03T09:41:02.016Z,48.77
2023-07-03T09:42:00.875Z,48.80
2023-07-03T09:43:01.969Z,48.72
2023-07-03T09:44:01.360Z,48.70
2023-07-03T09:45:01.042Z,48.66
2023-07-03T09:46:01.122Z,48.57
2023-07-03T09:47:01.156Z,48.60
2023-07-03T09:48:02.472Z,48.65
2023-07-03T09:49:02.263Z,48.56
2023-07-03T09:50:02.305Z,48.52
2023-07-03T09:51:07.915Z,48.40
2023-07-03T09:52:02.345Z,48.52
2023-07-03T09:53:09.119Z,48.42
2023-07-03T09:54:02.326Z,48.49
2023-07-03T09:55:02.455Z,48.48
2023-07-03T09:56:02.307Z,48.43
2023-07-03T09:57:02.317Z,48.36
2023-07-03T09:58:02.320Z,48.43
2023-07-03T09:59:02.308Z,48.30
2023-07-03T10:00:02.304Z,48.35
2023-07-03T10:01:02.454Z,48.27
2023-07-03T10:04:01.404Z,48.28
2023-07-03T10:07:01.755Z,48.24
2023-07-03T10:08:01.466Z,48.23
2023-07-03T10:12:01.297Z,48.14
2023-07-03T10:13:01.307Z,48.14
2023-07-03T10:14:02.208Z,47.96
2023-07-03T10:15:02.213Z,48.02
2023-07-03T10:16:01.189Z,48.05
2023-07-03T10:17:01.214Z,47.97
2023-07-03T10:18:01.381Z,48.03
2023-07-03T10:19:02.151Z,47.95
2023-07-03T10:20:02.374Z,47.94
2023-07-03T10:21:02.181Z,47.94
2023-07-03T10:22:02.169Z,47.84
2023-07-03T10:23:02.171Z,47.72
2023-07-03T10:24:01.153Z,47.77
2023-07-03T10:25:01.101Z,47.76
2023-07-03T10:26:01.095Z,47.81
2023-07-03T10:27:01.203Z,47.67
2023-07-03T10:28:02.180Z,47.70
2023-07-03T10:29:02.227Z,47.73
2023-07-03T10:30:02.108Z,47.66
2023-07-03T10:31:02.157Z,47.69
2023-07-03T10:32:01.397Z,47.75
2023-07-03T10:33:02.166Z,47.62
2023-07-03T10:34:01.043Z,47.65
2023-07-03T10:35:01.050Z,47.63
2023-07-03T10:36:01.812Z,47.58
2023-07-03T10:37:01.048Z,47.46
2023-07-03T10:38:01.037Z,47.51
2023-07-03T10:39:01.040Z,47.54
2023-07-03T10:40:02.024Z,47.58
2023-07-03T10:41:02.035Z,47.55
2023-07-03T10:42:02.069Z,47.41
2023-07-03T10:43:02.297Z,47.46
2023-07-03T10:44:02.222Z,47.47
2023-07-03T10:45:01.223Z,47.42
2023-07-03T10:46:01.316Z,47.47
2023-07-03T10:47:02.279Z,47.46
2023-07-03T10:48:02.436Z,47.43
2023-07-03T10:49:01.361Z,47.45
2023-07-03T10:50:01.444Z,47.34
2023-07-03T10:51:02.506Z,47.32
2023-07-03T10:52:01.489Z,47.32
2023-07-03T10:53:02.538Z,47.30
2023-07-03T10:54:01.583Z,47.29
2023-07-03T10:55:02.629Z,47.21
2023-07-03T10:56:02.644Z,47.20
2023-07-03T10:57:01.709Z,47.22
2023-07-03T10:58:01.707Z,47.20
2023-07-03T10:59:02.859Z,47.17
2023-07-03T11:00:01.772Z,47.19
2023-07-03T11:01:01.850Z,47.08
2023-07-03T11:02:02.900Z,47.07
2023-07-03T11:03:02.997Z,47.01
2023-07-03T11:04:22.289Z,47.06
2023-07-03T11:05:02.917Z,47.03
2023-07-03T11:06:02.898Z,47.00
2023-07-03T11:07:02.910Z,46.96
2023-07-03T11:08:01.887Z,47.00
2023-07-03T11:09:02.920Z,47.02
2023-07-03T11:10:02.887Z,46.99
2023-07-03T11:11:01.906Z,47.00
2023-07-03T11:12:01.902Z,46.95
2023-07-03T11:13:01.854Z,46.96
2023-07-03T11:14:01.929Z,47.02
2023-07-03T11:15:01.970Z,46.98
2023-07-03T11:16:03.009Z,47.01
2023-07-03T11:17:02.881Z,46.94
2023-07-03T11:20:01.858Z,46.84
2023-07-03T11:23:01.835Z,46.88
2023-07-03T11:24:02.808Z,46.93
2023-07-03T11:25:02.787Z,46.94
2023-07-03T11:28:01.783Z,46.89
2023-07-03T11:29:02.757Z,46.84
2023-07-03T11:30:02.747Z,46.85
2023-07-03T11:31:02.894Z,46.84
2023-07-03T11:32:01.741Z,46.81
2023-07-03T11:33:01.745Z,46.86
2023-07-03T11:36:01.693Z,46.72
2023-07-03T11:37:04.376Z,46.82
2023-07-03T11:40:01.708Z,46.86
2023-07-03T11:41:01.863Z,46.73
2023-07-03T11:44:01.645Z,46.75
2023-07-03T11:45:01.721Z,46.73
2023-07-03T11:46:01.643Z,46.77
2023-07-03T11:47:01.752Z,46.72
2023-07-03T11:48:02.750Z,46.68
2023-07-03T11:49:02.609Z,46.70
2023-07-03T11:50:01.679Z,46.68
2023-07-03T11:51:02.598Z,46.75
2023-07-03T11:52:02.600Z,46.71
2023-07-03T11:53:02.605Z,46.62
2023-07-03T11:54:01.583Z,46.68
2023-07-03T11:55:02.583Z,46.67
2023-07-03T11:56:01.602Z,46.69
2023-07-03T11:57:01.569Z,46.62
2023-07-03T11:58:15.060Z,46.68
2023-07-03T11:59:02.549Z,46.59
2023-07-03T12:00:01.559Z,46.55
2023-07-03T12:01:02.564Z,46.61
2023-07-03T12:02:02.564Z,46.61
2023-07-03T12:03:02.671Z,46.55
2023-07-03T12:04:01.592Z,46.54
2023-07-03T12:05:02.514Z,46.49
2023-07-03T12:06:02.520Z,46.57
2023-07-03T12:07:02.522Z,46.51
2023-07-03T12:08:02.497Z,46.55
2023-07-03T12:09:01.479Z,46.56
2023-07-03T12:10:01.483Z,46.52
2023-07-03T12:11:01.468Z,46.57
2023-07-03T12:12:01.497Z,46.54
2023-07-03T12:13:01.454Z,46.48
2023-07-03T12:14:02.463Z,46.38
2023-07-03T12:15:01.441Z,46.51
2023-07-03T12:16:02.462Z,46.43
2023-07-03T12:17:01.504Z,46.51
2023-07-03T12:18:01.463Z,46.49
2023-07-03T12:19:01.476Z,46.40
2023-07-03T12:20:01.465Z,46.46
2023-07-03T12:21:01.472Z,46.48
2023-07-03T12:22:02.402Z,46.46
2023-07-03T12:23:02.385Z,46.48
2023-07-03T12:24:01.409Z,46.50
2023-07-03T12:25:01.420Z,46.53
2023-07-03T12:26:02.404Z,46.56
2023-07-03T12:27:02.483Z,46.59
2023-07-03T12:28:01.392Z,46.56
2023-07-03T12:29:02.339Z,46.57
2023-07-03T12:30:02.354Z,46.58
2023-07-03T12:31:01.364Z,46.56
2023-07-03T12:32:01.330Z,46.57
2023-07-03T12:33:02.387Z,46.58
2023-07-03T12:34:01.353Z,46.57
2023-07-03T12:35:02.352Z,46.53
2023-07-03T12:36:02.308Z,46.64
2023-07-03T12:37:02.585Z,46.53
2023-07-03T12:38:01.285Z,46.53
2023-07-03T12:39:02.265Z,46.50
2023-07-03T12:40:02.277Z,46.55
2023-07-03T12:41:01.267Z,46.53
2023-07-03T12:42:02.276Z,46.47
2023-07-03T12:43:01.275Z,46.43
2023-07-03T12:45:01.294Z,46.41
2023-07-03T12:46:02.256Z,46.43
2023-07-03T12:47:01.366Z,46.47
2023-07-03T12:48:01.271Z,46.39
2023-07-03T12:49:01.237Z,46.45
2023-07-03T12:50:01.322Z,46.43
2023-07-03T12:51:01.314Z,46.39
2023-07-03T12:52:02.246Z,46.43
2023-07-03T12:53:02.232Z,46.48
2023-07-03T12:54:01.230Z,46.53
2023-07-03T12:55:13.194Z,46.50
2023-07-03T12:56:02.209Z,46.49
2023-07-03T12:57:02.276Z,46.51
2023-07-03T12:58:01.181Z,46.48
2023-07-03T12:59:02.187Z,46.46
2023-07-03T13:00:01.186Z,46.49
2023-07-03T13:01:02.229Z,46.45
2023-07-03T13:02:02.158Z,46.45
2023-07-03T13:03:02.207Z,46.48
2023-07-03T13:04:01.135Z,46.42
2023-07-03T13:05:02.299Z,46.33
2023-07-03T13:06:02.213Z,46.35
2023-07-03T13:07:02.183Z,46.31
2023-07-03T13:08:01.117Z,46.33
2023-07-03T13:09:01.137Z,46.41
2023-07-03T13:10:01.127Z,46.38
2023-07-03T13:11:02.119Z,46.41
2023-07-03T13:12:01.081Z,46.35
2023-07-03T13:13:01.146Z,46.41
2023-07-03T13:14:02.075Z,46.41
2023-07-03T13:15:01.075Z,46.47
2023-07-03T13:16:02.055Z,46.40